Time;durP1;ratioP1;P1;durP2;ratioP2;P2;SDS_P1;SDS_P2;PMS_P1;PMS_P2;Temp;Humidity;BMP_temperature;BMP_pressure;BME280_temperature;BME280_humidity;BME280_pressure;Samples;Min_cycle;Max_cycle;Signal;HPM_P1;HPM_P2
2022/07/01 00:00:34;;;;;;;14.60;7.65;;;26.10;99.90;;;;;;4961606;28;20034;-53
2022/07/01 00:03:01;;;;;;;16.83;8.18;;;26.10;99.90;;;;;;4965132;28;20035;-50
2022/07/01 00:05:26;;;;;;;17.48;8.15;;;26.10;99.90;;;;;;4965607;28;20499;-53
2022/07/01 00:07:52;;;;;;;12.30;7.88;;;26.50;99.90;;;;;;4964761;28;20069;-55
2022/07/01 00:10:19;;;;;;;13.77;8.88;;;;;;;;;;4963574;28;20049;-51
2022/07/01 00:12:46;;;;;;;15.38;8.50;;;25.40;99.90;;;;;;4978728;28;20051;-54
2022/07/01 00:15:12;;;;;;;13.48;7.82;;;25.50;99.90;;;;;;4962986;28;20047;-51
2022/07/01 00:17:39;;;;;;;13.57;8.35;;;25.80;99.90;;;;;;4990602;28;20039;-52
2022/07/01 00:20:07;;;;;;;18.38;8.43;;;26.00;99.90;;;;;;4965714;28;20043;-52
2022/07/01 00:22:34;;;;;;;14.82;8.07;;;25.80;99.90;;;;;;4973768;28;20047;-54
2022/07/01 00:25:00;;;;;;;12.52;8.38;;;26.00;99.90;;;;;;4963007;28;20133;-55
2022/07/01 00:27:26;;;;;;;19.25;7.97;;;26.00;99.90;;;;;;4966675;28;20037;-51
2022/07/01 00:29:56;;;;;;;15.57;7.72;;;26.10;99.90;;;;;;4965743;28;20039;-53
2022/07/01 00:32:21;;;;;;;13.90;7.82;;;26.30;99.90;;;;;;4963051;28;20509;-53
2022/07/01 00:34:47;;;;;;;19.50;9.18;;;26.40;99.90;;;;;;4965707;28;20118;-53
2022/07/01 00:37:13;;;;;;;19.50;9.25;;;26.50;99.90;;;;;;4957876;28;20019;-52
2022/07/01 00:39:38;;;;;;;16.10;9.15;;;26.20;99.90;;;;;;4965982;28;20113;-55
2022/07/01 00:42:04;;;;;;;17.75;9.20;;;26.10;99.90;;;;;;4978295;28;20051;-49
2022/07/01 00:44:31;;;;;;;19.88;9.93;;;26.00;99.90;;;;;;4978773;28;20436;-54
2022/07/01 00:46:59;;;;;;;16.40;9.05;;;26.00;99.90;;;;;;4953987;28;20066;-51
2022/07/01 00:49:26;;;;;;;15.25;7.35;;;25.90;99.90;;;;;;4965542;28;20051;-51
2022/07/01 00:51:53;;;;;;;13.35;8.45;;;26.20;99.90;;;;;;4962294;28;20043;-53
2022/07/01 00:54:20;;;;;;;13.65;9.38;;;26.30;99.90;;;;;;4965890;28;20034;-53
2022/07/01 00:56:47;;;;;;;16.23;9.18;;;26.50;99.90;;;;;;4964483;28;20035;-50
2022/07/01 00:59:14;;;;;;;11.60;8.35;;;26.60;99.90;;;;;;4964299;28;20105;-51
2022/07/01 01:01:40;;;;;;;17.17;9.15;;;26.20;99.90;;;;;;4957320;28;20042;-53
2022/07/01 01:04:06;;;;;;;16.35;9.00;;;26.10;99.90;;;;;;4965224;28;20030;-54
2022/07/01 01:06:33;;;;;;;11.95;8.88;;;26.00;99.90;;;;;;4965578;28;20027;-55
2022/07/01 01:08:59;;;;;;;14.60;9.15;;;26.20;99.90;;;;;;4964111;28;20479;-51
2022/07/01 01:11:25;;;;;;;14.52;9.10;;;26.30;99.90;;;;;;4977092;28;20560;-54
2022/07/01 01:13:51;;;;;;;17.75;8.85;;;26.40;99.90;;;;;;4959332;28;20034;-55
2022/07/01 01:16:22;;;;;;;15.93;9.05;;;26.50;99.90;;;;;;4979819;28;20402;-56
2022/07/01 01:18:48;;;;;;;17.95;9.88;;;26.50;99.90;;;;;;4962097;28;20105;-54
2022/07/01 01:21:14;;;;;;;15.60;9.02;;;26.60;99.90;;;;;;4963857;28;20034;-53
2022/07/01 01:23:41;;;;;;;17.50;10.20;;;26.80;99.90;;;;;;4961129;28;20038;-51
2022/07/01 01:26:21;;;;;;;15.70;10.38;;;26.50;99.90;;;;;;4974965;28;20487;-54
2022/07/01 01:28:48;;;;;;;16.17;9.80;;;;;;;;;;4960084;28;20038;-55
2022/07/01 01:31:14;;;;;;;12.40;9.68;;;;;;;;;;4966762;28;20035;-51
2022/07/01 01:33:40;;;;;;;23.13;11.85;;;25.30;99.90;;;;;;4963476;28;20060;-51
2022/07/01 01:36:09;;;;;;;16.58;9.77;;;25.10;99.90;;;;;;4961281;28;20122;-52
2022/07/01 01:38:36;;;;;;;17.83;10.27;;;25.10;99.90;;;;;;4963688;28;20055;-53
2022/07/01 01:41:04;;;;;;;17.88;10.32;;;25.20;99.90;;;;;;4963266;28;20088;-54
2022/07/01 01:43:30;;;;;;;16.20;10.77;;;;;;;;;;4978888;28;20518;-52
2022/07/01 01:45:56;;;;;;;15.95;9.98;;;;;;;;;;5004631;28;20039;-53
2022/07/01 01:48:22;;;;;;;15.38;10.32;;;25.00;99.90;;;;;;4982402;28;20051;-54
2022/07/01 01:50:48;;;;;;;22.00;10.60;;;;;;;;;;4974226;28;20035;-51
2022/07/01 01:53:14;;;;;;;17.88;10.77;;;25.00;99.90;;;;;;4980435;28;20043;-52
2022/07/01 01:55:39;;;;;;;13.88;9.75;;;25.20;99.90;;;;;;4977079;28;20054;-54
2022/07/01 01:58:05;;;;;;;17.63;9.90;;;25.00;99.90;;;;;;4983483;28;20039;-51
2022/07/01 02:00:31;;;;;;;19.58;10.27;;;;;;;;;;4985259;28;20027;-53
2022/07/01 02:02:57;;;;;;;18.67;10.43;;;;;;;;;;4966429;28;20048;-53
2022/07/01 02:05:24;;;;;;;17.02;10.30;;;;;;;;;;4978609;28;20030;-53
2022/07/01 02:07:49;;;;;;;16.48;10.25;;;24.10;99.90;;;;;;4985077;28;20039;-53
2022/07/01 02:10:15;;;;;;;17.70;11.15;;;;;;;;;;4986157;28;20042;-54
2022/07/01 02:12:41;;;;;;;17.55;10.48;;;24.10;99.90;;;;;;4983953;28;20070;-50
2022/07/01 02:15:08;;;;;;;17.75;10.70;;;;;;;;;;4974575;28;20090;-53
2022/07/01 02:17:33;;;;;;;16.75;10.95;;;23.80;99.90;;;;;;4966985;28;20085;-54
2022/07/01 02:19:59;;;;;;;16.10;11.15;;;23.90;99.90;;;;;;4977667;28;20495;-52
2022/07/01 02:22:25;;;;;;;17.67;10.95;;;23.90;99.90;;;;;;4966722;28;20110;-53
2022/07/01 02:24:51;;;;;;;18.98;10.95;;;24.40;99.90;;;;;;4965547;28;20027;-54
2022/07/01 02:27:18;;;;;;;15.52;10.57;;;;;;;;;;4968462;28;20079;-52
2022/07/01 02:29:44;;;;;;;18.27;10.73;;;24.70;99.90;;;;;;4961018;28;20041;-52
2022/07/01 02:32:10;;;;;;;16.40;10.40;;;24.50;99.90;;;;;;4970978;28;20030;-52
2022/07/01 02:34:36;;;;;;;17.95;12.20;;;24.50;99.90;;;;;;4974369;28;20031;-55
2022/07/01 02:37:02;;;;;;;19.80;10.88;;;;;;;;;;4982411;28;20054;-51
2022/07/01 02:39:28;;;;;;;18.67;12.10;;;;;;;;;;4959732;28;20055;-51
2022/07/01 02:44:39;;;;;;;13.85;10.35;;;;;;;;;;4966185;28;20038;-51
2022/07/01 02:47:05;;;;;;;17.42;11.38;;;;;;;;;;4982778;28;20090;-55
2022/07/01 02:49:31;;;;;;;16.02;10.77;;;;;;;;;;4974001;28;20031;-54
2022/07/01 02:51:57;;;;;;;20.67;12.70;;;;;;;;;;4968283;28;20046;-50
2022/07/01 02:54:23;;;;;;;17.02;10.50;;;25.20;99.90;;;;;;4981900;28;20054;-54
2022/07/01 02:56:49;;;;;;;15.82;10.00;;;25.40;99.90;;;;;;4980817;28;20395;-54
2022/07/01 02:59:15;;;;;;;17.88;12.10;;;25.60;99.90;;;;;;4967902;28;20106;-53
2022/07/01 03:01:40;;;;;;;16.20;11.32;;;25.70;99.90;;;;;;4971886;28;20030;-54
2022/07/01 03:04:06;;;;;;;19.25;11.88;;;25.80;99.90;;;;;;4973435;28;20035;-53
2022/07/01 03:06:32;;;;;;;21.10;11.70;;;25.50;99.90;;;;;;4957665;28;20039;-52
2022/07/01 03:08:57;;;;;;;21.30;11.43;;;25.50;99.90;;;;;;4967490;28;20034;-53
2022/07/01 03:11:23;;;;;;;17.05;11.48;;;25.30;99.90;;;;;;4968128;28;20038;-55
2022/07/01 03:13:49;;;;;;;20.30;11.18;;;25.30;99.90;;;;;;4955477;28;20035;-51
2022/07/01 03:16:16;;;;;;;22.67;11.85;;;25.60;99.90;;;;;;4982166;28;20054;-53
2022/07/01 03:18:42;;;;;;;20.20;10.32;;;25.60;99.90;;;;;;4968348;28;20118;-55
2022/07/01 03:21:07;;;;;;;15.13;10.95;;;25.70;99.90;;;;;;4959499;28;20163;-52
2022/07/01 03:23:33;;;;;;;17.17;10.60;;;25.60;99.90;;;;;;4967599;28;20057;-50
2022/07/01 03:25:59;;;;;;;19.77;10.68;;;25.60;99.90;;;;;;4970146;28;20474;-52
2022/07/01 03:28:25;;;;;;;17.70;11.13;;;25.40;99.90;;;;;;4976703;28;20035;-52
2022/07/01 03:30:51;;;;;;;22.95;11.80;;;;;;;;;;4980741;28;20383;-50
2022/07/01 03:33:17;;;;;;;18.58;9.98;;;25.50;99.90;;;;;;4965440;28;20027;-53
2022/07/01 03:35:45;;;;;;;18.23;10.40;;;25.60;99.90;;;;;;4965856;28;20508;-51
2022/07/01 03:38:11;;;;;;;21.33;10.82;;;25.70;99.90;;;;;;4961218;28;20510;-52
2022/07/01 03:40:38;;;;;;;16.95;10.73;;;25.60;99.90;;;;;;4975416;28;20488;-52
2022/07/01 03:43:04;;;;;;;20.98;10.95;;;25.50;99.90;;;;;;4962266;28;20041;-52
2022/07/01 03:45:30;;;;;;;18.55;11.80;;;25.50;99.90;;;;;;4965313;28;20023;-53
2022/07/01 03:47:56;;;;;;;18.48;11.30;;;25.70;99.90;;;;;;4965566;28;20031;-53
2022/07/01 03:50:24;;;;;;;22.92;12.52;;;25.70;99.90;;;;;;4961172;28;20054;-53
2022/07/01 03:54:29;;;;;;;18.55;10.63;;;25.80;99.90;;;;;;4967313;28;20093;-51
2022/07/01 03:55:38;;;;;;;24.60;11.55;;;;;;;;;;4969346;28;20106;-54
2022/07/01 03:58:04;;;;;;;17.35;10.55;;;25.80;99.90;;;;;;4963785;28;20105;-54
2022/07/01 04:00:33;;;;;;;16.88;10.52;;;25.80;99.90;;;;;;4965050;28;20119;-53
2022/07/01 04:02:59;;;;;;;20.73;11.70;;;25.80;99.90;;;;;;4962662;28;20483;-53
2022/07/01 04:05:25;;;;;;;19.90;10.85;;;25.90;99.90;;;;;;4973157;28;20045;-55
2022/07/01 04:07:51;;;;;;;23.23;12.32;;;25.90;99.90;;;;;;4958385;28;20043;-51
2022/07/01 04:10:17;;;;;;;18.52;11.45;;;26.00;99.90;;;;;;4964939;28;20027;-55
2022/07/01 04:12:43;;;;;;;15.70;10.52;;;26.20;99.90;;;;;;4978175;28;20046;-53
2022/07/01 04:15:10;;;;;;;23.48;12.10;;;26.20;99.90;;;;;;4958776;28;20179;-54
2022/07/01 04:17:36;;;;;;;20.55;12.35;;;26.20;99.90;;;;;;4979133;28;20039;-54
2022/07/01 04:20:02;;;;;;;14.20;10.90;;;26.30;99.90;;;;;;4961844;28;20368;-55
2022/07/01 04:22:35;;;;;;;22.95;11.32;;;26.30;99.90;;;;;;4992779;28;20043;-52
2022/07/01 04:25:03;;;;;;;24.13;12.02;;;26.40;99.90;;;;;;4965981;28;20511;-53
2022/07/01 04:27:30;;;;;;;19.20;9.98;;;26.40;99.90;;;;;;4954956;28;20049;-53
2022/07/01 04:29:56;;;;;;;20.42;10.90;;;26.40;99.90;;;;;;4982873;28;20042;-54
2022/07/01 04:32:23;;;;;;;18.02;10.40;;;26.40;99.90;;;;;;4988495;28;20575;-52
2022/07/01 04:34:49;;;;;;;14.82;11.05;;;26.20;99.90;;;;;;4972004;28;20051;-52
2022/07/01 04:37:15;;;;;;;20.20;9.82;;;26.10;99.90;;;;;;4972010;28;20134;-52
2022/07/01 04:39:40;;;;;;;21.80;11.23;;;26.20;99.90;;;;;;4971969;28;20133;-53
2022/07/01 04:42:06;;;;;;;18.13;10.32;;;26.30;99.90;;;;;;4972395;28;20449;-54
2022/07/01 04:44:37;;;;;;;18.70;11.20;;;26.20;99.90;;;;;;4972479;28;20135;-55
2022/07/01 04:47:04;;;;;;;22.23;11.47;;;25.90;99.90;;;;;;4971553;28;20117;-54
2022/07/01 04:49:30;;;;;;;22.33;11.82;;;26.00;99.90;;;;;;4971936;28;20038;-52
2022/07/01 04:51:57;;;;;;;21.98;11.57;;;26.00;99.90;;;;;;4972041;28;20039;-53
2022/07/01 04:54:25;;;;;;;16.08;12.15;;;25.90;99.90;;;;;;4971771;28;20081;-50
2022/07/01 04:56:52;;;;;;;21.05;11.80;;;26.20;99.90;;;;;;4972461;28;20031;-52
2022/07/01 04:59:19;;;;;;;18.60;11.38;;;26.40;99.90;;;;;;4969043;28;20057;-54
2022/07/01 05:01:48;;;;;;;20.55;12.07;;;26.50;99.90;;;;;;4971058;28;20433;-54
2022/07/01 05:04:14;;;;;;;19.17;11.98;;;26.60;99.90;;;;;;4964257;28;20050;-52
2022/07/01 05:06:41;;;;;;;18.85;11.57;;;26.90;99.90;;;;;;4964675;28;20118;-53
2022/07/01 05:09:07;;;;;;;16.63;12.05;;;26.80;99.90;;;;;;4962667;28;20043;-54
2022/07/01 05:11:33;;;;;;;28.88;13.10;;;27.00;99.90;;;;;;4959495;28;20037;-52
2022/07/01 05:13:59;;;;;;;21.05;11.32;;;27.10;99.90;;;;;;4976076;28;20035;-53
2022/07/01 05:16:25;;;;;;;18.52;11.13;;;;;;;;;;4963097;28;20054;-51
2022/07/01 05:24:20;;;;;;;22.30;11.90;;;;;;;;;;4962061;28;20119;-54
2022/07/01 05:26:45;;;;;;;20.48;10.20;;;27.70;99.90;;;;;;4962340;28;20066;-51
2022/07/01 05:29:12;;;;;;;22.02;11.70;;;;;;;;;;4973426;28;20483;-54
2022/07/01 05:31:38;;;;;;;16.10;11.57;;;;;;;;;;4966032;28;20059;-53
2022/07/01 05:34:04;;;;;;;23.65;12.13;;;27.90;99.90;;;;;;4965684;28;20113;-55
2022/07/01 05:36:30;;;;;;;23.90;13.25;;;28.10;99.90;;;;;;4979602;28;20146;-55
2022/07/01 05:38:55;;;;;;;19.50;12.23;;;28.10;99.90;;;;;;4988121;28;20704;-54
2022/07/01 05:41:21;;;;;;;18.45;13.13;;;28.10;99.90;;;;;;4985998;28;20031;-51
2022/07/01 05:43:47;;;;;;;24.42;12.95;;;28.00;99.90;;;;;;4994370;28;20113;-55
2022/07/01 05:46:13;;;;;;;28.88;12.55;;;28.30;99.90;;;;;;4966379;28;20494;-55
2022/07/01 05:48:38;;;;;;;27.05;11.95;;;28.50;99.90;;;;;;4984798;28;20034;-51
2022/07/01 05:51:04;;;;;;;25.52;12.23;;;28.50;99.90;;;;;;4985489;28;20058;-52
2022/07/01 05:53:30;;;;;;;26.83;11.60;;;28.60;99.90;;;;;;4978133;28;20155;-54
2022/07/01 05:55:55;;;;;;;22.25;10.48;;;28.60;99.90;;;;;;4985070;28;20652;-52
2022/07/01 05:58:21;;;;;;;20.38;11.73;;;28.70;99.90;;;;;;4992508;28;20070;-52
2022/07/01 06:00:47;;;;;;;20.75;10.50;;;28.80;99.90;;;;;;4989356;28;20108;-56
2022/07/01 06:03:14;;;;;;;18.90;10.52;;;28.90;99.90;;;;;;4967205;28;20042;-52
2022/07/01 06:05:41;;;;;;;15.50;10.50;;;29.00;99.90;;;;;;4992331;28;20042;-52
2022/07/01 06:08:07;;;;;;;19.70;10.45;;;29.20;99.90;;;;;;4989221;28;20480;-53
2022/07/01 06:10:34;;;;;;;23.73;10.73;;;29.30;99.90;;;;;;4970211;28;20034;-54
2022/07/01 06:13:00;;;;;;;23.25;11.93;;;;;;;;;;4971679;28;20027;-54
2022/07/01 06:15:26;;;;;;;25.08;12.88;;;29.60;99.90;;;;;;4970770;28;20035;-54
2022/07/01 06:17:54;;;;;;;26.70;11.43;;;29.60;99.90;;;;;;4991577;28;20050;-54
2022/07/01 06:20:20;;;;;;;18.73;10.73;;;29.40;99.90;;;;;;4992465;28;20121;-51
2022/07/01 06:22:46;;;;;;;19.55;10.95;;;29.70;99.90;;;;;;4988372;28;20125;-52
2022/07/01 06:25:11;;;;;;;21.27;10.63;;;29.50;99.90;;;;;;4983310;28;20049;-49
2022/07/01 06:27:41;;;;;;;19.55;9.55;;;29.50;99.90;;;;;;4983935;28;20034;-55
2022/07/01 06:30:07;;;;;;;23.05;11.52;;;29.60;99.90;;;;;;4981460;28;20089;-51
2022/07/01 06:32:33;;;;;;;19.40;11.63;;;29.70;99.90;;;;;;4971527;28;20429;-58
2022/07/01 06:34:59;;;;;;;20.70;10.20;;;30.00;99.90;;;;;;4965361;28;20046;-54
2022/07/01 06:37:25;;;;;;;15.20;9.82;;;30.10;99.90;;;;;;4985044;28;20560;-50
2022/07/01 06:39:51;;;;;;;19.50;9.52;;;29.90;99.90;;;;;;4987140;28;20137;-50
2022/07/01 06:42:17;;;;;;;19.48;9.15;;;30.10;99.90;;;;;;4985707;28;20109;-55
2022/07/01 06:44:43;;;;;;;18.25;9.95;;;30.10;99.90;;;;;;4989498;28;20030;-52
2022/07/01 06:47:08;;;;;;;16.75;9.60;;;30.00;99.90;;;;;;4985528;28;20053;-55
2022/07/01 06:49:34;;;;;;;16.65;8.40;;;29.90;99.90;;;;;;4960464;28;20047;-51
2022/07/01 06:52:00;;;;;;;17.88;9.35;;;30.00;99.90;;;;;;4969929;28;20031;-54
2022/07/01 06:54:25;;;;;;;16.00;7.95;;;30.10;99.90;;;;;;4976018;28;20038;-52
2022/07/01 06:56:51;;;;;;;18.02;8.80;;;30.40;99.90;;;;;;4974045;28;20478;-50
2022/07/01 06:59:17;;;;;;;16.08;9.52;;;30.70;99.90;;;;;;4970667;28;20086;-50
2022/07/01 07:01:43;;;;;;;24.27;10.15;;;30.80;99.90;;;;;;4970610;28;20115;-54
2022/07/01 07:04:09;;;;;;;17.13;9.20;;;;;;;;;;4965962;28;20038;-51
2022/07/01 07:06:35;;;;;;;18.15;8.63;;;;;;;;;;4966390;28;20058;-54
2022/07/01 07:09:01;;;;;;;15.73;8.60;;;;;;;;;;4971895;28;20043;-51
2022/07/01 07:11:27;;;;;;;14.02;8.93;;;;;;;;;;4974531;28;20382;-51
2022/07/01 07:13:53;;;;;;;17.70;6.82;;;;;;;;;;4967821;28;20030;-53
2022/07/01 07:16:20;;;;;;;14.25;6.82;;;;;;;;;;4970334;28;20035;-52
2022/07/01 07:18:47;;;;;;;18.85;8.43;;;;;;;;;;4970008;28;20054;-51
2022/07/01 07:21:13;;;;;;;15.77;7.63;;;;;;;;;;4968940;28;20035;-51
2022/07/01 07:23:40;;;;;;;20.05;8.05;;;;;;;;;;4984485;28;20038;-52
2022/07/01 07:26:07;;;;;;;17.48;7.78;;;;;;;;;;4966710;28;20070;-55
2022/07/01 07:28:32;;;;;;;15.48;7.35;;;32.30;99.90;;;;;;4967950;28;20550;-53
2022/07/01 07:30:58;;;;;;;13.80;7.25;;;32.40;99.90;;;;;;4959006;28;20035;-51
2022/07/01 07:33:24;;;;;;;20.23;8.05;;;;;;;;;;4967526;28;20031;-50
2022/07/01 07:35:50;;;;;;;12.32;7.18;;;32.60;99.90;;;;;;4965376;28;20399;-53
2022/07/01 07:38:16;;;;;;;13.88;7.93;;;32.60;99.90;;;;;;4969653;28;20022;-53
2022/07/01 07:40:42;;;;;;;14.18;7.18;;;32.70;99.90;;;;;;4974091;28;20050;-51
2022/07/01 07:43:07;;;;;;;18.15;8.35;;;32.80;99.90;;;;;;4988473;28;20438;-52
2022/07/01 07:45:34;;;;;;;16.92;7.70;;;32.80;99.90;;;;;;4973131;28;20074;-54
2022/07/01 07:48:00;;;;;;;14.43;7.20;;;33.10;99.90;;;;;;4971797;28;20054;-55
2022/07/01 07:50:27;;;;;;;10.60;6.97;;;33.10;99.90;;;;;;4975152;28;20027;-53
2022/07/01 07:52:53;;;;;;;13.32;7.60;;;33.10;99.90;;;;;;4971699;28;20030;-53
2022/07/01 07:55:18;;;;;;;14.57;7.80;;;33.30;99.90;;;;;;4972081;28;20439;-52
2022/07/01 07:57:44;;;;;;;10.40;6.55;;;33.40;99.90;;;;;;4971301;28;20134;-51
2022/07/01 08:00:12;;;;;;;14.95;6.63;;;33.40;99.90;;;;;;4980414;28;20360;-51
2022/07/01 08:02:39;;;;;;;14.90;6.45;;;33.40;99.90;;;;;;4968895;28;20104;-53
2022/07/01 08:05:06;;;;;;;12.95;7.20;;;33.40;99.90;;;;;;4972843;28;20066;-53
2022/07/01 08:07:40;;;;;;;18.27;7.18;;;33.60;99.90;;;;;;4970943;28;20043;-51
2022/07/01 08:10:08;;;;;;;15.27;7.78;;;33.40;99.90;;;;;;4965486;28;20071;-55
2022/07/01 08:12:34;;;;;;;17.13;6.88;;;33.60;99.90;;;;;;4985053;28;20060;-52
2022/07/01 08:15:00;;;;;;;17.58;8.30;;;33.50;99.90;;;;;;4971596;28;20046;-52
2022/07/01 08:17:27;;;;;;;12.23;7.45;;;33.60;99.90;;;;;;4953895;28;20083;-55
2022/07/01 08:19:53;;;;;;;12.80;6.60;;;33.90;99.90;;;;;;4970354;28;20053;-50
2022/07/01 08:22:19;;;;;;;13.40;6.32;;;34.10;99.90;;;;;;4968544;28;20510;-50
2022/07/01 08:24:45;;;;;;;15.90;7.07;;;34.00;99.90;;;;;;4966308;28;20031;-51
2022/07/01 08:27:12;;;;;;;12.35;6.22;;;34.30;99.90;;;;;;4971966;28;20468;-55
2022/07/01 08:29:38;;;;;;;11.45;6.40;;;;;;;;;;4963189;28;20538;-52
2022/07/01 08:32:04;;;;;;;13.23;6.85;;;33.60;99.90;;;;;;4970638;28;20037;-56
2022/07/01 08:34:30;;;;;;;15.27;6.32;;;34.20;99.90;;;;;;4968386;28;20124;-54
2022/07/01 08:36:56;;;;;;;12.32;6.20;;;34.30;99.90;;;;;;4966237;28;20483;-53
2022/07/01 08:39:22;;;;;;;10.43;5.90;;;34.50;99.90;;;;;;4980860;28;20042;-57
2022/07/01 08:41:48;;;;;;;10.15;5.72;;;34.30;99.90;;;;;;4981694;28;20042;-55
2022/07/01 08:44:14;;;;;;;14.95;6.15;;;34.40;99.90;;;;;;4988261;28;20056;-57
2022/07/01 08:46:40;;;;;;;11.55;6.13;;;34.50;99.90;;;;;;4984850;28;20050;-58
2022/07/01 08:49:06;;;;;;;15.80;6.35;;;34.50;99.90;;;;;;4979033;28;20049;-56
2022/07/01 08:51:32;;;;;;;9.88;6.13;;;34.70;97.90;;;;;;4979815;28;20035;-53
2022/07/01 08:53:58;;;;;;;12.32;6.10;;;35.00;97.90;;;;;;4988051;28;20038;-56
2022/07/01 08:56:43;;;;;;;9.38;6.18;;;35.00;96.90;;;;;;4965632;28;20047;-58
2022/07/01 08:59:12;;;;;;;12.15;6.28;;;35.00;97.00;;;;;;4994279;28;20038;-56
2022/07/01 09:01:39;;;;;;;11.95;5.90;;;35.30;96.90;;;;;;4978264;28;20125;-56
2022/07/01 09:04:23;;;;;;;10.77;5.43;;;35.50;96.50;;;;;;4989091;28;20116;-53
2022/07/01 09:06:49;;;;;;;10.77;5.75;;;35.70;96.50;;;;;;4975593;28;20038;-56
2022/07/01 09:09:20;;;;;;;10.65;5.95;;;36.00;96.20;;;;;;4965235;28;20034;-56
2022/07/01 09:11:53;;;;;;;;;;;36.10;95.10;;;;;;4971460;28;20031;-54
2022/07/01 09:14:26;;;;;;;10.32;5.30;;;36.20;95.20;;;;;;4969656;28;19906;-57
2022/07/01 09:16:55;;;;;;;7.15;5.07;;;36.10;94.30;;;;;;4978780;28;20117;-58
2022/07/01 09:19:22;;;;;;;16.08;5.22;;;36.20;93.60;;;;;;4969216;28;20027;-57
2022/07/01 09:21:49;;;;;;;10.18;5.30;;;35.80;93.90;;;;;;4984434;28;20096;-55
2022/07/01 09:24:42;;;;;;;10.68;5.65;;;35.90;93.60;;;;;;4953676;28;20067;-57
2022/07/01 09:27:18;;;;;;;12.75;4.97;;;36.10;93.90;;;;;;4949777;28;20059;-55
2022/07/01 09:29:46;;;;;;;8.45;4.95;;;36.00;93.30;;;;;;4968489;28;20383;-55
2022/07/01 09:32:16;;;;;;;10.13;6.32;;;36.10;93.20;;;;;;4969032;28;20038;-54
2022/07/01 09:34:48;;;;;;;15.88;6.05;;;36.30;93.00;;;;;;4968808;28;20134;-56
2022/07/01 09:37:16;;;;;;;14.13;6.65;;;36.70;93.10;;;;;;4969769;28;20434;-56
2022/07/01 09:39:46;;;;;;;9.85;5.40;;;36.30;92.00;;;;;;4962604;28;20940;-55
2022/07/01 09:42:13;;;;;;;9.83;5.10;;;36.60;92.70;;;;;;4969569;28;20046;-54
2022/07/01 09:44:55;;;;;;;12.18;5.85;;;36.40;92.00;;;;;;4969263;28;20582;-57
2022/07/01 09:47:28;;;;;;;10.25;4.15;;;36.40;91.10;;;;;;4959453;28;20126;-54
2022/07/01 09:49:56;;;;;;;9.93;4.80;;;36.70;91.00;;;;;;4990489;28;20043;-53
2022/07/01 09:52:23;;;;;;;11.88;5.50;;;37.00;91.50;;;;;;4966334;28;20506;-55
2022/07/01 09:54:49;;;;;;;9.68;5.32;;;37.40;91.60;;;;;;4985912;28;20054;-53
2022/07/01 09:57:16;;;;;;;15.50;5.80;;;37.80;95.70;;;;;;4994826;28;20043;-54
2022/07/01 09:59:42;;;;;;;16.27;5.78;;;37.50;91.70;;;;;;4965952;28;20226;-55
2022/07/01 10:02:09;;;;;;;10.02;5.53;;;37.70;91.60;;;;;;4968674;28;20189;-54
2022/07/01 10:04:38;;;;;;;12.48;4.93;;;37.70;91.00;;;;;;4965748;28;20038;-54
2022/07/01 10:07:17;;;;;;;10.60;5.18;;;;;;;;;;4967898;28;20046;-55
2022/07/01 10:09:53;;;;;;;10.10;4.97;;;;;;;;;;4969416;28;20031;-54
2022/07/01 10:12:43;;;;;;;11.75;5.50;;;37.70;90.50;;;;;;4955259;28;20047;-54
2022/07/01 10:15:11;;;;;;;8.40;4.72;;;36.90;91.20;;;;;;4968001;28;20434;-53
2022/07/01 10:17:42;;;;;;;13.05;5.68;;;;;;;;;;4980870;28;20050;-54
2022/07/01 10:20:12;;;;;;;12.77;6.05;;;;;;;;;;4987069;28;20034;-52
2022/07/01 10:22:39;;;;;;;13.10;5.60;;;;;;;;;;4988715;28;20081;-53
2022/07/01 10:25:35;;;;;;;13.07;5.13;;;38.10;99.90;;;;;;5002926;28;20069;-53
2022/07/01 10:28:19;;;;;;;10.80;5.47;;;;;;;;;;4982708;28;20522;-54
2022/07/01 10:30:55;;;;;;;13.48;4.97;;;38.90;90.10;;;;;;4983458;28;20184;-58
2022/07/01 10:33:31;;;;;;;9.15;5.68;;;;;;;;;;4984192;28;20061;-57
2022/07/01 10:36:33;;;;;;;11.98;5.57;;;39.10;99.90;;;;;;4997450;28;20136;-57
2022/07/01 10:39:08;;;;;;;7.47;5.00;;;39.30;92.20;;;;;;4978781;28;20038;-56
2022/07/01 10:41:40;;;;;;;9.68;5.63;;;39.10;87.30;;;;;;4987461;28;20057;-56
2022/07/01 10:44:12;;;;;;;9.23;5.00;;;38.90;88.30;;;;;;4979909;28;20156;-55
2022/07/01 10:46:58;;;;;;;8.27;5.22;;;38.80;86.80;;;;;;4968584;28;20043;-55
2022/07/01 10:49:36;;;;;;;7.88;5.32;;;38.80;87.50;;;;;;4970483;28;20035;-56
2022/07/01 10:52:16;;;;;;;14.18;5.40;;;38.80;87.10;;;;;;4977248;28;20045;-52
2022/07/01 10:54:45;;;;;;;10.60;5.03;;;39.00;88.80;;;;;;4968141;28;20063;-59
2022/07/01 10:57:19;;;;;;;11.13;6.18;;;39.10;86.30;;;;;;4967522;28;20069;-52
2022/07/01 10:59:48;;;;;;;11.38;5.93;;;39.40;86.70;;;;;;4971504;28;20050;-56
2022/07/01 11:02:27;;;;;;;11.63;5.50;;;39.60;86.90;;;;;;4970829;28;20493;-55
2022/07/01 11:04:55;;;;;;;12.48;5.45;;;39.60;85.90;;;;;;4971915;28;20118;-54
2022/07/01 11:07:25;;;;;;;10.05;5.57;;;39.60;86.10;;;;;;4972473;28;20049;-52
2022/07/01 11:09:51;;;;;;;10.18;5.18;;;39.60;86.90;;;;;;4966846;28;20366;-55
2022/07/01 11:12:19;;;;;;;9.65;5.32;;;39.90;88.90;;;;;;4971328;28;20026;-59
2022/07/01 11:14:46;;;;;;;9.93;5.25;;;39.90;86.30;;;;;;4973252;28;21529;-60
2022/07/01 11:17:12;;;;;;;8.13;5.82;;;39.50;85.30;;;;;;4970528;28;20045;-55
2022/07/01 11:19:38;;;;;;;11.25;5.35;;;38.90;85.50;;;;;;4972245;28;20039;-49
2022/07/01 11:22:05;;;;;;;10.30;5.38;;;39.20;85.70;;;;;;4973591;28;20031;-51
2022/07/01 11:24:31;;;;;;;6.90;4.65;;;39.10;85.70;;;;;;4972088;28;20034;-51
2022/07/01 11:27:15;;;;;;;11.38;6.18;;;39.10;85.70;;;;;;4971243;28;20035;-55
2022/07/01 11:29:41;;;;;;;8.75;4.80;;;39.20;85.60;;;;;;4970814;28;20039;-55
2022/07/01 11:32:07;;;;;;;10.63;5.22;;;39.00;84.50;;;;;;4973232;28;20085;-56
2022/07/01 11:34:35;;;;;;;13.63;5.50;;;39.00;84.70;;;;;;4970339;28;20490;-55
2022/07/01 11:40:09;;;;;;;15.88;6.45;;;38.80;84.30;;;;;;4966954;28;20114;-56
2022/07/01 11:42:36;;;;;;;9.07;5.50;;;39.50;86.20;;;;;;4964720;28;20146;-56
2022/07/01 11:45:03;;;;;;;10.90;6.68;;;39.70;86.10;;;;;;4968722;28;20039;-55
2022/07/01 11:47:29;;;;;;;9.65;5.95;;;39.80;85.20;;;;;;4971591;28;20141;-55
2022/07/01 11:49:57;;;;;;;7.72;5.97;;;40.30;84.10;;;;;;4969401;28;20126;-55
2022/07/01 11:52:23;;;;;;;12.88;6.25;;;40.20;85.20;;;;;;4963015;28;20042;-55
2022/07/01 11:54:55;;;;;;;10.25;5.88;;;40.50;88.50;;;;;;4968143;28;20533;-55
2022/07/01 11:57:23;;;;;;;9.48;5.55;;;40.70;95.90;;;;;;4965589;28;20039;-55
2022/07/01 11:59:51;;;;;;;12.70;6.28;;;40.40;92.20;;;;;;4968928;28;20113;-56
2022/07/01 12:02:19;;;;;;;9.43;5.70;;;40.40;95.00;;;;;;4964986;28;20494;-55
2022/07/01 12:04:45;;;;;;;9.75;6.15;;;40.40;94.40;;;;;;4967859;28;20023;-55
2022/07/01 12:07:13;;;;;;;7.60;5.60;;;40.60;94.10;;;;;;4968029;28;20430;-55
2022/07/01 12:09:40;;;;;;;10.55;6.38;;;;;;;;;;4965126;28;20065;-54
2022/07/01 12:12:06;;;;;;;8.85;6.25;;;;;;;;;;4963396;28;20541;-56
2022/07/01 12:14:35;;;;;;;9.68;5.07;;;;;;;;;;4968390;28;20050;-54
2022/07/01 12:17:04;;;;;;;11.70;5.75;;;40.30;96.10;;;;;;4969103;28;20133;-55
2022/07/01 12:19:39;;;;;;;8.07;5.78;;;40.40;96.10;;;;;;4967488;28;20478;-55
2022/07/01 12:22:12;;;;;;;9.02;5.80;;;40.50;95.50;;;;;;4971288;28;20035;-55
2022/07/01 12:24:39;;;;;;;11.95;5.72;;;40.60;95.80;;;;;;4962796;28;20138;-55
2022/07/01 12:27:06;;;;;;;16.40;5.95;;;40.60;94.80;;;;;;4973154;28;20030;-55
2022/07/01 12:29:50;;;;;;;15.15;7.63;;;40.90;96.20;;;;;;4971356;28;20564;-55
2022/07/01 12:32:24;;;;;;;11.52;6.32;;;41.10;83.80;;;;;;4965662;28;20054;-54
2022/07/01 12:34:57;;;;;;;8.48;5.85;;;;;;;;;;4968430;28;20077;-55
2022/07/01 12:37:33;;;;;;;12.45;6.25;;;39.30;80.20;;;;;;4967339;28;20521;-55
2022/07/01 12:40:07;;;;;;;12.65;6.25;;;40.10;81.80;;;;;;4965735;28;20051;-56
2022/07/01 12:42:42;;;;;;;9.02;5.25;;;40.50;81.90;;;;;;4980662;28;20475;-55
2022/07/01 12:45:12;;;;;;;13.00;6.00;;;40.90;80.90;;;;;;4966220;28;20042;-55
2022/07/01 12:47:47;;;;;;;9.88;5.97;;;40.80;87.00;;;;;;4966558;28;20031;-55
2022/07/01 12:50:21;;;;;;;9.98;6.40;;;41.60;88.20;;;;;;4965853;28;20135;-55
2022/07/01 12:53:09;;;;;;;10.02;5.97;;;40.90;82.00;;;;;;4969619;28;20035;-54
2022/07/01 12:55:40;;;;;;;8.55;6.10;;;40.80;80.50;;;;;;4968395;28;20093;-55
2022/07/01 12:58:07;;;;;;;;;;;40.50;83.60;;;;;;4970474;28;20483;-55
2022/07/01 13:00:34;;;;;;;18.08;6.72;;;40.10;80.70;;;;;;4965309;28;20354;-55
2022/07/01 13:03:01;;;;;;;11.25;6.78;;;40.10;81.30;;;;;;4970258;28;20039;-55
2022/07/01 13:05:29;;;;;;;10.05;6.47;;;40.30;81.00;;;;;;4966782;28;20038;-54